Helotes, TX (78023)

5:51 PM CST on February 07, 2016 (GMT -0600)
Helotes Park Terrace | | Change Station
CLOSE
Current Station
Personal Weather Station
Location: Helotes, TX
Elevation: 1060 ft
Nearby Weather Stations

Elev 1060 ft 29.57 °N, 98.68 °W | Updated 5 seconds ago

Clear
Clear
63.3 °F
Feels Like 63.3 °F
N
0.0
Wind Variable Wind from ESE
Gusts 0.0 mph

Today
High -- | Low -- °F
--% Chance of Precip.
Yesterday
High -- | Low -- °F
Precip. -- in
Pressure 30.13 in
Visibility 10.0 miles
Clouds Clear
Dew Point 34 °F
Humidity 34%
Rainfall 0.00 in
Snow Depth Not available.
7:20 AM 6:17 PM
Waning Crescent, 1% visible
METAR K5C1 072335Z AUTO 22004KT 10SM CLR 16/M02 A3013 RMK AO1
Pressure 30.13 in
Visibility 10.0 miles
Clouds Clear
Dew Point 34 °F
Humidity 34%
Rainfall 0.00 in
Snow Depth Not available.
7:20 AM 6:17 PM
Waning Crescent, 1% visible
METAR K5C1 072335Z AUTO 22004KT 10SM CLR 16/M02 A3013 RMK AO1

10-Day Weather Forecast

Almanac

Astronomy

Feb. 07, 2016 Rise Set
Actual Time
Civil Twilight
Nautical Twilight
Astronomical Twilight
Moon
Length of Visible Light
Length of Day
Tomorrow will be .
, % of the Moon is Illuminated

Today's Extremes

State Highs State Lows

Community

WunderPhotos

Upload Photos

1,891,329 photos uploaded!

WunderBlog® & News

Nearby

Air Quality

  Air Quality AQ Index Pollutant
Not available.

Snow Depth

Station Depth Elevation

Earthquake Activity

City Distance Mag. Time & Date
Minimum magnitude displayed is 2.5.

Coastal Water Temperatures

Place Temperature

Stations

Nearby Weather Stations

Station Location Temp. Windchill Dew Point Humidity Wind Precip. Elev Updated Type
                   

Watches & Warnings

There are currently no watches in effect.